sensor_id;sensor_type;location;lat;lon;timestamp;pressure;altitude;pressure_sealevel;temperature;humidity
13312;BME280;34033;48.672;9.376;2023-01-28T00:01:13;99124.34;;;3.19;69.90
13312;BME280;34033;48.672;9.376;2023-01-28T00:03:39;99117.63;;;3.20;70.21
13312;BME280;34033;48.672;9.376;2023-01-28T00:06:13;99123.16;;;3.20;70.07
13312;BME280;34033;48.672;9.376;2023-01-28T00:08:39;99116.19;;;3.14;70.14
13312;BME280;34033;48.672;9.376;2023-01-28T00:11:06;99122.38;;;3.11;69.90
13312;BME280;34033;48.672;9.376;2023-01-28T00:13:33;99114.25;;;3.06;70.54
13312;BME280;34033;48.672;9.376;2023-01-28T00:16:00;99114.75;;;3.08;70.25
13312;BME280;34033;48.672;9.376;2023-01-28T00:18:27;99114.41;;;3.10;70.16
13312;BME280;34033;48.672;9.376;2023-01-28T00:20:59;99111.81;;;3.13;70.43
13312;BME280;34033;48.672;9.376;2023-01-28T00:23:26;99110.66;;;3.14;70.59
13312;BME280;34033;48.672;9.376;2023-01-28T00:25:52;99100.75;;;3.13;70.21
13312;BME280;34033;48.672;9.376;2023-01-28T00:28:19;99100.44;;;3.06;69.84
13312;BME280;34033;48.672;9.376;2023-01-28T00:30:44;99105.63;;;2.99;70.23
13312;BME280;34033;48.672;9.376;2023-01-28T00:33:10;99105.97;;;2.98;70.28
13312;BME280;34033;48.672;9.376;2023-01-28T00:35:35;99111.97;;;2.91;70.07
13312;BME280;34033;48.672;9.376;2023-01-28T00:38:00;99104.81;;;2.99;70.51
13312;BME280;34033;48.672;9.376;2023-01-28T00:40:27;99101.22;;;2.98;70.58
13312;BME280;34033;48.672;9.376;2023-01-28T00:42:52;99096.50;;;2.99;69.97
13312;BME280;34033;48.672;9.376;2023-01-28T00:45:18;99101.06;;;2.94;70.18
13312;BME280;34033;48.672;9.376;2023-01-28T00:47:44;99095.41;;;2.91;69.22
13312;BME280;34033;48.672;9.376;2023-01-28T00:50:10;99100.75;;;2.96;70.80
13312;BME280;34033;48.672;9.376;2023-01-28T00:52:35;99103.03;;;2.94;70.68
13312;BME280;34033;48.672;9.376;2023-01-28T00:55:00;99101.88;;;2.95;70.15
13312;BME280;34033;48.672;9.376;2023-01-28T00:57:26;99098.16;;;2.91;70.55
13312;BME280;34033;48.672;9.376;2023-01-28T00:59:51;99097.00;;;2.83;70.44
13312;BME280;34033;48.672;9.376;2023-01-28T01:02:16;99107.75;;;2.85;71.46
13312;BME280;34033;48.672;9.376;2023-01-28T01:04:42;99103.84;;;2.86;70.91
13312;BME280;34033;48.672;9.376;2023-01-28T01:07:20;99110.84;;;2.92;70.68
13312;BME280;34033;48.672;9.376;2023-01-28T01:09:46;99105.16;;;2.97;70.42
13312;BME280;34033;48.672;9.376;2023-01-28T01:12:11;99101.09;;;3.03;70.90
13312;BME280;34033;48.672;9.376;2023-01-28T01:14:36;99094.25;;;3.09;70.17
13312;BME280;34033;48.672;9.376;2023-01-28T01:17:02;99111.31;;;3.11;70.08
13312;BME280;34033;48.672;9.376;2023-01-28T01:19:27;99111.16;;;3.16;70.24
13312;BME280;34033;48.672;9.376;2023-01-28T01:21:55;99104.81;;;3.07;69.59
13312;BME280;34033;48.672;9.376;2023-01-28T01:24:21;99104.81;;;3.07;69.45
13312;BME280;34033;48.672;9.376;2023-01-28T01:26:46;99098.97;;;3.09;69.99
13312;BME280;34033;48.672;9.376;2023-01-28T01:29:11;99105.94;;;3.15;70.04
13312;BME280;34033;48.672;9.376;2023-01-28T01:31:37;99100.41;;;3.15;69.59
13312;BME280;34033;48.672;9.376;2023-01-28T01:34:03;99121.06;;;3.17;69.81
13312;BME280;34033;48.672;9.376;2023-01-28T01:36:28;99110.00;;;3.17;69.56
13312;BME280;34033;48.672;9.376;2023-01-28T01:38:54;99107.25;;;3.17;69.45
13312;BME280;34033;48.672;9.376;2023-01-28T01:41:28;99110.16;;;3.21;69.73
13312;BME280;34033;48.672;9.376;2023-01-28T01:43:55;99110.97;;;3.21;69.31
13312;BME280;34033;48.672;9.376;2023-01-28T01:49:06;99118.13;;;3.22;69.31
13312;BME280;34033;48.672;9.376;2023-01-28T01:51:33;99116.19;;;3.23;69.39
13312;BME280;34033;48.672;9.376;2023-01-28T01:54:00;99124.47;;;3.23;69.50
13312;BME280;34033;48.672;9.376;2023-01-28T01:56:33;99127.72;;;3.16;69.72
13312;BME280;34033;48.672;9.376;2023-01-28T01:59:00;99124.78;;;3.21;69.45
13312;BME280;34033;48.672;9.376;2023-01-28T02:01:28;99123.66;;;3.22;69.27
13312;BME280;34033;48.672;9.376;2023-01-28T02:06:42;99127.88;;;3.28;69.74
13312;BME280;34033;48.672;9.376;2023-01-28T02:09:25;99134.38;;;3.32;69.38
13312;BME280;34033;48.672;9.376;2023-01-28T02:11:53;99128.38;;;3.39;69.62
13312;BME280;34033;48.672;9.376;2023-01-28T02:14:22;99126.75;;;3.38;68.47
13312;BME280;34033;48.672;9.376;2023-01-28T02:16:49;99131.44;;;3.38;68.75
13312;BME280;34033;48.672;9.376;2023-01-28T02:19:15;99135.06;;;3.29;68.88
13312;BME280;34033;48.672;9.376;2023-01-28T02:22:02;99130.97;;;3.27;69.08
13312;BME280;34033;48.672;9.376;2023-01-28T02:27:32;99138.13;;;3.28;69.12
13312;BME280;34033;48.672;9.376;2023-01-28T02:30:17;99138.47;;;3.35;69.58
13312;BME280;34033;48.672;9.376;2023-01-28T02:35:29;99133.75;;;3.35;69.75
13312;BME280;34033;48.672;9.376;2023-01-28T02:38:02;99131.94;;;3.31;69.69
13312;BME280;34033;48.672;9.376;2023-01-28T02:40:30;99129.81;;;3.36;69.63
13312;BME280;34033;48.672;9.376;2023-01-28T02:43:29;99125.28;;;3.41;69.46
13312;BME280;34033;48.672;9.376;2023-01-28T02:45:54;99137.78;;;3.38;69.92
13312;BME280;34033;48.672;9.376;2023-01-28T02:48:38;99133.56;;;3.41;69.30
13312;BME280;34033;48.672;9.376;2023-01-28T02:54:13;99131.28;;;3.43;69.38
13312;BME280;34033;48.672;9.376;2023-01-28T02:56:44;99131.78;;;3.45;69.13
13312;BME280;34033;48.672;9.376;2023-01-28T03:07:29;99134.22;;;3.20;70.68
13312;BME280;34033;48.672;9.376;2023-01-28T03:09:57;99135.22;;;3.24;70.76
13312;BME280;34033;48.672;9.376;2023-01-28T03:12:27;99145.59;;;3.27;71.01
13312;BME280;34033;48.672;9.376;2023-01-28T03:15:15;99141.38;;;3.30;70.39
13312;BME280;34033;48.672;9.376;2023-01-28T03:21:00;99140.41;;;3.34;70.38
13312;BME280;34033;48.672;9.376;2023-01-28T03:24:06;99138.59;;;3.39;70.29
13312;BME280;34033;48.672;9.376;2023-01-28T03:27:03;99144.00;;;3.35;70.78
13312;BME280;34033;48.672;9.376;2023-01-28T03:29:50;99144.63;;;3.32;70.91
13312;BME280;34033;48.672;9.376;2023-01-28T03:32:37;99146.09;;;3.29;70.54
13312;BME280;34033;48.672;9.376;2023-01-28T03:35:24;99147.06;;;3.33;71.15
13312;BME280;34033;48.672;9.376;2023-01-28T03:38:12;99134.56;;;3.36;70.46
13312;BME280;34033;48.672;9.376;2023-01-28T03:40:59;99144.13;;;3.39;70.58
13312;BME280;34033;48.672;9.376;2023-01-28T03:43:25;99139.44;;;3.39;70.01
13312;BME280;34033;48.672;9.376;2023-01-28T03:45:51;99145.78;;;3.40;70.55
13312;BME280;34033;48.672;9.376;2023-01-28T03:48:21;99149.19;;;3.45;69.98
13312;BME280;34033;48.672;9.376;2023-01-28T03:50:46;99147.69;;;3.48;70.40
13312;BME280;34033;48.672;9.376;2023-01-28T03:53:13;99155.34;;;3.42;70.28
13312;BME280;34033;48.672;9.376;2023-01-28T03:55:40;99152.09;;;3.49;70.23
13312;BME280;34033;48.672;9.376;2023-01-28T03:58:06;99157.97;;;3.47;69.85
13312;BME280;34033;48.672;9.376;2023-01-28T04:00:31;99151.63;;;3.47;70.41
13312;BME280;34033;48.672;9.376;2023-01-28T04:03:03;99163.81;;;3.46;70.23
13312;BME280;34033;48.672;9.376;2023-01-28T04:05:29;99151.63;;;3.38;70.83
13312;BME280;34033;48.672;9.376;2023-01-28T04:07:55;99154.06;;;3.40;70.58
13312;BME280;34033;48.672;9.376;2023-01-28T04:10:20;99154.38;;;3.38;70.34
13312;BME280;34033;48.672;9.376;2023-01-28T04:12:46;99151.78;;;3.42;70.93
13312;BME280;34033;48.672;9.376;2023-01-28T04:15:14;99152.25;;;3.44;70.15
13312;BME280;34033;48.672;9.376;2023-01-28T04:17:44;99153.72;;;3.50;70.32
13312;BME280;34033;48.672;9.376;2023-01-28T04:20:10;99156.34;;;3.46;70.32
13312;BME280;34033;48.672;9.376;2023-01-28T04:22:36;99166.59;;;3.46;70.31
13312;BME280;34033;48.672;9.376;2023-01-28T04:25:02;99164.13;;;3.44;70.76
13312;BME280;34033;48.672;9.376;2023-01-28T04:27:27;99164.44;;;3.43;70.37
13312;BME280;34033;48.672;9.376;2023-01-28T04:29:53;99174.22;;;3.40;70.47
13312;BME280;34033;48.672;9.376;2023-01-28T04:32:18;99181.69;;;3.40;70.15
13312;BME280;34033;48.672;9.376;2023-01-28T04:34:43;99180.06;;;3.39;70.47
13312;BME280;34033;48.672;9.376;2023-01-28T04:37:08;99190.31;;;3.38;70.68
13312;BME280;34033;48.672;9.376;2023-01-28T04:39:34;99180.88;;;3.39;70.75
13312;BME280;34033;48.672;9.376;2023-01-28T04:41:59;99182.84;;;3.39;70.72
13312;BME280;34033;48.672;9.376;2023-01-28T04:44:24;99188.34;;;3.39;70.79
13312;BME280;34033;48.672;9.376;2023-01-28T04:46:49;99193.56;;;3.40;70.74
13312;BME280;34033;48.672;9.376;2023-01-28T04:49:15;99185.59;;;3.39;71.47
13312;BME280;34033;48.672;9.376;2023-01-28T04:51:40;99193.38;;;3.36;71.56
13312;BME280;34033;48.672;9.376;2023-01-28T04:54:06;99191.63;;;3.41;71.54
13312;BME280;34033;48.672;9.376;2023-01-28T04:56:31;99190.00;;;3.40;71.70
13312;BME280;34033;48.672;9.376;2023-01-28T04:58:57;99189.69;;;3.41;72.42
13312;BME280;34033;48.672;9.376;2023-01-28T05:01:22;99180.06;;;3.39;72.19
13312;BME280;34033;48.672;9.376;2023-01-28T05:03:49;99190.81;;;3.40;72.03
13312;BME280;34033;48.672;9.376;2023-01-28T05:06:14;99194.69;;;3.39;71.91
13312;BME280;34033;48.672;9.376;2023-01-28T05:08:39;99187.72;;;3.42;72.31
13312;BME280;34033;48.672;9.376;2023-01-28T05:11:06;99192.28;;;3.46;72.17
13312;BME280;34033;48.672;9.376;2023-01-28T05:13:31;99196.97;;;3.46;72.17
13312;BME280;34033;48.672;9.376;2023-01-28T05:15:56;99196.97;;;3.46;72.01
13312;BME280;34033;48.672;9.376;2023-01-28T05:18:22;99199.59;;;3.51;71.72
13312;BME280;34033;48.672;9.376;2023-01-28T05:20:47;99194.88;;;3.51;71.83
13312;BME280;34033;48.672;9.376;2023-01-28T05:23:12;99197.94;;;3.50;72.07
13312;BME280;34033;48.672;9.376;2023-01-28T05:25:38;99193.25;;;3.50;71.82
13312;BME280;34033;48.672;9.376;2023-01-28T05:28:03;99204.28;;;3.59;71.86
13312;BME280;34033;48.672;9.376;2023-01-28T05:30:29;99203.50;;;3.58;72.03
13312;BME280;34033;48.672;9.376;2023-01-28T05:32:55;99207.41;;;3.57;71.72
13312;BME280;34033;48.672;9.376;2023-01-28T05:35:20;99196.97;;;3.54;71.64
13312;BME280;34033;48.672;9.376;2023-01-28T05:37:46;99195.19;;;3.58;71.50
13312;BME280;34033;48.672;9.376;2023-01-28T05:40:11;99194.03;;;3.59;72.05
13312;BME280;34033;48.672;9.376;2023-01-28T05:42:37;99204.28;;;3.59;72.19
13312;BME280;34033;48.672;9.376;2023-01-28T05:45:02;99199.09;;;3.49;71.77
13312;BME280;34033;48.672;9.376;2023-01-28T05:47:28;99203.66;;;3.45;72.03
13312;BME280;34033;48.672;9.376;2023-01-28T05:49:53;99202.97;;;3.48;71.95
13312;BME280;34033;48.672;9.376;2023-01-28T05:52:18;99203.81;;;3.48;72.02
13312;BME280;34033;48.672;9.376;2023-01-28T05:54:44;99200.56;;;3.46;72.08
13312;BME280;34033;48.672;9.376;2023-01-28T05:57:09;99206.91;;;3.47;72.29
13312;BME280;34033;48.672;9.376;2023-01-28T05:59:34;99208.69;;;3.43;72.03
13312;BME280;34033;48.672;9.376;2023-01-28T06:01:59;99206.25;;;3.41;71.99
13312;BME280;34033;48.672;9.376;2023-01-28T06:04:25;99202.34;;;3.42;72.22
13312;BME280;34033;48.672;9.376;2023-01-28T06:06:50;99213.72;;;3.41;71.91
13312;BME280;34033;48.672;9.376;2023-01-28T06:09:15;99216.00;;;3.39;72.11
13312;BME280;34033;48.672;9.376;2023-01-28T06:11:41;99213.22;;;3.39;72.24
13312;BME280;34033;48.672;9.376;2023-01-28T06:14:06;99209.66;;;3.38;72.47
13312;BME280;34033;48.672;9.376;2023-01-28T06:16:31;99215.19;;;3.38;72.42
13312;BME280;34033;48.672;9.376;2023-01-28T06:18:57;99221.38;;;3.35;72.04
13312;BME280;34033;48.672;9.376;2023-01-28T06:21:22;99225.59;;;3.32;72.26
13312;BME280;34033;48.672;9.376;2023-01-28T06:23:47;99228.19;;;3.29;72.69
13312;BME280;34033;48.672;9.376;2023-01-28T06:26:13;99244.59;;;3.25;72.82
13312;BME280;34033;48.672;9.376;2023-01-28T06:28:38;99235.50;;;3.25;72.92
13312;BME280;34033;48.672;9.376;2023-01-28T06:31:03;99245.59;;;3.29;73.30
13312;BME280;34033;48.672;9.376;2023-01-28T06:33:29;99244.78;;;3.29;73.12
13312;BME280;34033;48.672;9.376;2023-01-28T06:35:54;99248.66;;;3.28;73.10
13312;BME280;34033;48.672;9.376;2023-01-28T06:38:20;99249.63;;;3.23;73.08
13312;BME280;34033;48.672;9.376;2023-01-28T06:40:53;99259.38;;;3.21;73.73
13312;BME280;34033;48.672;9.376;2023-01-28T06:43:22;99259.06;;;3.22;74.24
13312;BME280;34033;48.672;9.376;2023-01-28T06:46:01;99262.47;;;3.19;73.92
13312;BME280;34033;48.672;9.376;2023-01-28T06:48:27;99255.47;;;3.22;74.60
13312;BME280;34033;48.672;9.376;2023-01-28T06:50:53;99257.22;;;3.09;74.08
13312;BME280;34033;48.672;9.376;2023-01-28T06:53:19;99263.25;;;3.11;74.23
13312;BME280;34033;48.672;9.376;2023-01-28T06:55:44;99263.75;;;3.13;74.39
13312;BME280;34033;48.672;9.376;2023-01-28T06:58:10;99266.69;;;3.17;74.43
13312;BME280;34033;48.672;9.376;2023-01-28T07:00:35;99268.28;;;3.09;74.17
13312;BME280;34033;48.672;9.376;2023-01-28T07:03:02;99274.31;;;3.03;74.19
13312;BME280;34033;48.672;9.376;2023-01-28T07:05:27;99279.47;;;3.04;74.80
13312;BME280;34033;48.672;9.376;2023-01-28T07:07:52;99282.91;;;3.01;75.00
13312;BME280;34033;48.672;9.376;2023-01-28T07:10:18;99278.03;;;3.07;75.21
13312;BME280;34033;48.672;9.376;2023-01-28T07:12:43;99283.72;;;3.10;74.56
13312;BME280;34033;48.672;9.376;2023-01-28T07:15:12;99285.88;;;3.13;74.33
13312;BME280;34033;48.672;9.376;2023-01-28T07:17:43;99279.69;;;3.16;74.67
13312;BME280;34033;48.672;9.376;2023-01-28T07:20:13;99282.59;;;3.20;74.70
13312;BME280;34033;48.672;9.376;2023-01-28T07:22:47;99281.97;;;3.23;74.66
13312;BME280;34033;48.672;9.376;2023-01-28T07:25:19;99284.75;;;3.23;74.20
13312;BME280;34033;48.672;9.376;2023-01-28T07:27:52;99288.00;;;3.25;73.92
13312;BME280;34033;48.672;9.376;2023-01-28T07:30:19;99290.78;;;3.25;74.14
13312;BME280;34033;48.672;9.376;2023-01-28T07:32:45;99305.38;;;3.25;74.10
13312;BME280;34033;48.672;9.376;2023-01-28T07:35:11;99291.44;;;3.30;74.31
13312;BME280;34033;48.672;9.376;2023-01-28T07:37:37;99299.22;;;3.28;73.42
13312;BME280;34033;48.672;9.376;2023-01-28T07:40:03;99304.56;;;3.16;73.92
13312;BME280;34033;48.672;9.376;2023-01-28T07:42:28;99303.41;;;3.17;74.01
13312;BME280;34033;48.672;9.376;2023-01-28T07:44:53;99304.41;;;3.21;74.02
13312;BME280;34033;48.672;9.376;2023-01-28T07:47:19;99305.88;;;3.27;74.43
13312;BME280;34033;48.672;9.376;2023-01-28T07:49:44;99301.03;;;3.33;73.86
13312;BME280;34033;48.672;9.376;2023-01-28T07:52:10;99296.66;;;3.41;73.25
13312;BME280;34033;48.672;9.376;2023-01-28T07:54:35;99308.69;;;3.45;73.53
13312;BME280;34033;48.672;9.376;2023-01-28T07:57:00;99310.31;;;3.46;73.51
13312;BME280;34033;48.672;9.376;2023-01-28T07:59:26;99320.06;;;3.43;73.38
13312;BME280;34033;48.672;9.376;2023-01-28T08:01:51;99308.03;;;3.48;73.71
13312;BME280;34033;48.672;9.376;2023-01-28T08:04:18;99316.00;;;3.49;73.33
13312;BME280;34033;48.672;9.376;2023-01-28T08:06:44;99314.41;;;3.57;73.16
13312;BME280;34033;48.672;9.376;2023-01-28T08:09:09;99320.41;;;3.59;72.36
13312;BME280;34033;48.672;9.376;2023-01-28T08:11:37;99322.38;;;3.67;72.60
13312;BME280;34033;48.672;9.376;2023-01-28T08:14:02;99319.31;;;3.68;72.99
13312;BME280;34033;48.672;9.376;2023-01-28T08:16:28;99324.66;;;3.65;71.96
13312;BME280;34033;48.672;9.376;2023-01-28T08:18:53;99325.16;;;3.67;72.35
13312;BME280;34033;48.672;9.376;2023-01-28T08:21:19;99326.13;;;3.71;72.98
13312;BME280;34033;48.672;9.376;2023-01-28T08:23:44;99324.31;;;3.75;72.77
13312;BME280;34033;48.672;9.376;2023-01-28T08:26:09;99330.00;;;4.47;83.80
13312;BME280;34033;48.672;9.376;2023-01-28T08:28:34;99333.59;;;4.39;77.60
13312;BME280;34033;48.672;9.376;2023-01-28T08:31:00;99328.56;;;4.33;73.50
13312;BME280;34033;48.672;9.376;2023-01-28T08:33:25;99333.13;;;4.29;72.09
13312;BME280;34033;48.672;9.376;2023-01-28T08:35:51;99329.88;;;4.27;71.16
13312;BME280;34033;48.672;9.376;2023-01-28T08:38:16;99326.00;;;5.21;85.34
13312;BME280;34033;48.672;9.376;2023-01-28T08:40:43;99334.59;;;7.30;82.67
13312;BME280;34033;48.672;9.376;2023-01-28T08:43:09;99318.84;;;9.26;69.58
13312;BME280;34033;48.672;9.376;2023-01-28T08:45:34;99310.44;;;8.94;56.79
13312;BME280;34033;48.672;9.376;2023-01-28T08:48:02;99323.53;;;8.22;58.54
13312;BME280;34033;48.672;9.376;2023-01-28T08:50:30;99325.69;;;7.49;59.38
13312;BME280;34033;48.672;9.376;2023-01-28T08:52:59;99333.97;;;6.88;59.92
13312;BME280;34033;48.672;9.376;2023-01-28T08:55:26;99333.03;;;6.39;61.52
13312;BME280;34033;48.672;9.376;2023-01-28T08:57:52;99335.63;;;6.03;62.58
13312;BME280;34033;48.672;9.376;2023-01-28T09:00:19;99329.22;;;5.61;63.29
13312;BME280;34033;48.672;9.376;2023-01-28T09:02:44;99340.53;;;5.47;64.09
13312;BME280;34033;48.672;9.376;2023-01-28T09:05:10;99340.91;;;5.37;65.08
13312;BME280;34033;48.672;9.376;2023-01-28T09:07:36;99342.75;;;5.33;65.22
13312;BME280;34033;48.672;9.376;2023-01-28T09:10:03;99348.19;;;5.21;65.27
13312;BME280;34033;48.672;9.376;2023-01-28T09:12:29;99347.22;;;5.17;65.49
13312;BME280;34033;48.672;9.376;2023-01-28T09:14:54;99340.03;;;5.16;65.80
13312;BME280;34033;48.672;9.376;2023-01-28T09:17:20;99351.53;;;5.64;70.68
13312;BME280;34033;48.672;9.376;2023-01-28T09:19:46;99348.84;;;5.47;65.00
13312;BME280;34033;48.672;9.376;2023-01-28T09:22:11;99349.63;;;5.27;64.77
13312;BME280;34033;48.672;9.376;2023-01-28T09:24:36;99353.41;;;5.14;65.54
13312;BME280;34033;48.672;9.376;2023-01-28T09:27:02;99356.88;;;5.02;65.74
13312;BME280;34033;48.672;9.376;2023-01-28T09:29:27;99362.09;;;5.03;65.72
13312;BME280;34033;48.672;9.376;2023-01-28T09:31:53;99366.00;;;5.02;65.86
13312;BME280;34033;48.672;9.376;2023-01-28T09:34:18;99363.41;;;4.97;66.17
13312;BME280;34033;48.672;9.376;2023-01-28T09:36:43;99364.72;;;5.00;66.47
13312;BME280;34033;48.672;9.376;2023-01-28T09:39:08;99376.13;;;4.98;66.41
13312;BME280;34033;48.672;9.376;2023-01-28T09:47:39;99375.66;;;4.96;65.93
13312;BME280;34033;48.672;9.376;2023-01-28T09:50:14;99369.59;;;5.03;65.69
13312;BME280;34033;48.672;9.376;2023-01-28T09:52:41;99381.00;;;5.10;65.94
13312;BME280;34033;48.672;9.376;2023-01-28T09:58:10;99381.50;;;5.03;65.37
13312;BME280;34033;48.672;9.376;2023-01-28T10:01:20;99382.94;;;5.10;64.95
13312;BME280;34033;48.672;9.376;2023-01-28T10:09:14;99375.00;;;5.37;63.71
13312;BME280;34033;48.672;9.376;2023-01-28T10:12:03;99365.03;;;5.45;63.62
13312;BME280;34033;48.672;9.376;2023-01-28T10:19:59;99376.38;;;5.52;63.07
13312;BME280;34033;48.672;9.376;2023-01-28T10:22:42;99372.91;;;5.34;62.10
13312;BME280;34033;48.672;9.376;2023-01-28T10:25:20;99367.84;;;5.36;61.97
13312;BME280;34033;48.672;9.376;2023-01-28T10:27:47;99367.19;;;5.39;62.34
13312;BME280;34033;48.672;9.376;2023-01-28T10:30:18;99355.69;;;5.50;61.88
13312;BME280;34033;48.672;9.376;2023-01-28T10:35:21;99351.69;;;5.68;62.30
13312;BME280;34033;48.672;9.376;2023-01-28T10:37:49;99355.22;;;5.77;62.10
13312;BME280;34033;48.672;9.376;2023-01-28T10:40:16;99355.66;;;5.79;61.95
13312;BME280;34033;48.672;9.376;2023-01-28T10:42:43;99356.97;;;5.81;61.83
13312;BME280;34033;48.672;9.376;2023-01-28T10:45:27;99349.25;;;5.66;60.85
13312;BME280;34033;48.672;9.376;2023-01-28T10:50:32;99349.34;;;5.49;68.83
13312;BME280;34033;48.672;9.376;2023-01-28T10:53:05;99346.94;;;5.68;62.43
13312;BME280;34033;48.672;9.376;2023-01-28T10:55:56;99341.19;;;5.73;61.95
13312;BME280;34033;48.672;9.376;2023-01-28T10:58:24;99341.19;;;5.73;61.71
13312;BME280;34033;48.672;9.376;2023-01-28T11:00:52;99346.25;;;5.71;61.61
13312;BME280;34033;48.672;9.376;2023-01-28T11:03:19;99348.22;;;5.71;62.36
13312;BME280;34033;48.672;9.376;2023-01-28T11:05:53;99352.88;;;5.58;61.32
13312;BME280;34033;48.672;9.376;2023-01-28T11:08:19;99357.69;;;5.40;61.52
13312;BME280;34033;48.672;9.376;2023-01-28T11:10:46;99356.78;;;5.28;62.09
13312;BME280;34033;48.672;9.376;2023-01-28T11:13:16;99352.09;;;5.20;62.99
13312;BME280;34033;48.672;9.376;2023-01-28T11:18:22;99357.00;;;5.14;63.50
13312;BME280;34033;48.672;9.376;2023-01-28T11:20:59;99359.31;;;5.12;63.78
13312;BME280;34033;48.672;9.376;2023-01-28T11:23:27;99363.88;;;5.08;63.48
13312;BME280;34033;48.672;9.376;2023-01-28T11:26:08;99361.47;;;5.36;73.04
13312;BME280;34033;48.672;9.376;2023-01-28T11:28:40;99358.16;;;5.51;67.97
13312;BME280;34033;48.672;9.376;2023-01-28T11:31:08;99357.38;;;5.42;64.52
13312;BME280;34033;48.672;9.376;2023-01-28T11:34:03;99354.47;;;5.30;63.72
13312;BME280;34033;48.672;9.376;2023-01-28T11:36:32;99361.44;;;5.07;63.73
13312;BME280;34033;48.672;9.376;2023-01-28T11:39:19;99372.88;;;4.96;63.15
13312;BME280;34033;48.672;9.376;2023-01-28T11:41:45;99370.28;;;5.00;63.68
13312;BME280;34033;48.672;9.376;2023-01-28T11:44:15;99367.31;;;5.05;64.02
13312;BME280;34033;48.672;9.376;2023-01-28T11:52:20;99366.38;;;4.92;63.48
13312;BME280;34033;48.672;9.376;2023-01-28T11:57:45;99360.88;;;4.84;64.52
13312;BME280;34033;48.672;9.376;2023-01-28T12:00:37;99359.75;;;4.85;65.08
13312;BME280;34033;48.672;9.376;2023-01-28T12:18:10;99363.06;;;4.44;65.86
13312;BME280;34033;48.672;9.376;2023-01-28T12:20:55;99359.00;;;4.33;66.74
13312;BME280;34033;48.672;9.376;2023-01-28T12:26:32;99354.44;;;4.45;66.93
13312;BME280;34033;48.672;9.376;2023-01-28T12:29:16;99357.50;;;4.61;67.73
13312;BME280;34033;48.672;9.376;2023-01-28T12:43:04;99364.47;;;4.84;66.27
13312;BME280;34033;48.672;9.376;2023-01-28T12:45:37;99357.81;;;4.68;65.74
13312;BME280;34033;48.672;9.376;2023-01-28T12:48:18;99360.91;;;4.67;67.18
13312;BME280;34033;48.672;9.376;2023-01-28T12:50:53;99353.88;;;4.69;66.83
13312;BME280;34033;48.672;9.376;2023-01-28T13:02:05;99353.75;;;4.66;66.87
13312;BME280;34033;48.672;9.376;2023-01-28T13:05:05;99354.69;;;4.78;67.27
13312;BME280;34033;48.672;9.376;2023-01-28T13:07:44;99348.81;;;4.80;66.05
13312;BME280;34033;48.672;9.376;2023-01-28T13:10:39;99350.16;;;4.65;66.06
13312;BME280;34033;48.672;9.376;2023-01-28T13:13:06;99350.22;;;4.39;66.13
13312;BME280;34033;48.672;9.376;2023-01-28T13:15:39;99346.91;;;4.63;68.87
13312;BME280;34033;48.672;9.376;2023-01-28T13:18:26;99351.75;;;4.75;67.90
13312;BME280;34033;48.672;9.376;2023-01-28T13:20:52;99351.25;;;4.81;67.60
13312;BME280;34033;48.672;9.376;2023-01-28T13:25:55;99354.03;;;4.81;66.48
13312;BME280;34033;48.672;9.376;2023-01-28T13:28:39;99347.84;;;4.76;67.00
13312;BME280;34033;48.672;9.376;2023-01-28T13:31:07;99353.88;;;4.69;66.73
13312;BME280;34033;48.672;9.376;2023-01-28T13:33:36;99351.16;;;4.60;67.23
13312;BME280;34033;48.672;9.376;2023-01-28T13:36:26;99347.53;;;4.69;67.80
13312;BME280;34033;48.672;9.376;2023-01-28T13:39:20;99352.28;;;4.68;67.62
13312;BME280;34033;48.672;9.376;2023-01-28T13:41:51;99346.22;;;4.75;68.40
13312;BME280;34033;48.672;9.376;2023-01-28T13:44:31;99346.34;;;4.87;67.69
13312;BME280;34033;48.672;9.376;2023-01-28T13:49:46;99353.34;;;4.93;66.63
13312;BME280;34033;48.672;9.376;2023-01-28T13:52:16;99357.75;;;4.85;66.69
13312;BME280;34033;48.672;9.376;2023-01-28T14:18:43;99369.09;;;5.10;67.30
13312;BME280;34033;48.672;9.376;2023-01-28T14:21:18;99377.09;;;5.11;67.21
13312;BME280;34033;48.672;9.376;2023-01-28T14:23:53;99386.09;;;4.99;66.64
13312;BME280;34033;48.672;9.376;2023-01-28T14:26:43;99383.34;;;4.82;67.08
13312;BME280;34033;48.672;9.376;2023-01-28T14:31:45;99394.16;;;4.58;68.31
13312;BME280;34033;48.672;9.376;2023-01-28T14:36:49;99394.00;;;4.54;69.88
13312;BME280;34033;48.672;9.376;2023-01-28T14:39:29;99400.38;;;4.46;70.12
13312;BME280;34033;48.672;9.376;2023-01-28T14:41:58;99399.88;;;4.27;70.57
13312;BME280;34033;48.672;9.376;2023-01-28T14:44:35;99399.56;;;4.11;70.89
13312;BME280;34033;48.672;9.376;2023-01-28T14:55:50;99421.97;;;3.84;74.05
13312;BME280;34033;48.672;9.376;2023-01-28T14:58:42;99414.81;;;3.92;74.24
13312;BME280;34033;48.672;9.376;2023-01-28T15:01:27;99428.31;;;3.93;72.67
13312;BME280;34033;48.672;9.376;2023-01-28T15:03:53;99442.13;;;3.76;72.42
13312;BME280;34033;48.672;9.376;2023-01-28T15:06:33;99426.66;;;3.75;73.35
13312;BME280;34033;48.672;9.376;2023-01-28T15:09:07;99419.97;;;5.90;100.00
13312;BME280;34033;48.672;9.376;2023-01-28T15:11:36;99426.88;;;7.57;100.00
13312;BME280;34033;48.672;9.376;2023-01-28T15:14:07;99421.63;;;7.31;100.00
13312;BME280;34033;48.672;9.376;2023-01-28T15:16:37;99429.69;;;6.66;85.87
13312;BME280;34033;48.672;9.376;2023-01-28T15:19:06;99429.13;;;6.11;69.96
13312;BME280;34033;48.672;9.376;2023-01-28T15:21:34;99428.81;;;5.74;70.41
13312;BME280;34033;48.672;9.376;2023-01-28T15:24:00;99433.44;;;5.32;70.39
13312;BME280;34033;48.672;9.376;2023-01-28T15:26:30;99438.06;;;5.02;70.58
13312;BME280;34033;48.672;9.376;2023-01-28T15:28:57;99435.19;;;4.90;72.14
13312;BME280;34033;48.672;9.376;2023-01-28T15:31:32;99441.09;;;6.03;98.91
13312;BME280;34033;48.672;9.376;2023-01-28T15:34:23;99441.38;;;6.10;70.24
13312;BME280;34033;48.672;9.376;2023-01-28T15:37:03;99444.22;;;6.63;87.04
13312;BME280;34033;48.672;9.376;2023-01-28T15:39:28;99438.47;;;8.19;73.42
13312;BME280;34033;48.672;9.376;2023-01-28T15:42:04;99449.50;;;7.91;62.82
13312;BME280;34033;48.672;9.376;2023-01-28T15:44:36;99448.75;;;7.34;61.80
13312;BME280;34033;48.672;9.376;2023-01-28T15:47:10;99447.78;;;6.73;62.13